Time,TemperatureF,DewpointF,PressureIn,WindDirection,WindDirectionDegrees,WindSpeedMPH,WindSpeedGustMPH,Humidity,HourlyPrecipIn,Conditions,Clouds,dailyrainin,SoftwareType,DateUTC
2013-04-05 00:00:00,43.0,24.6,30.00,SW,225,3.7,3.7,48,0.00,CLR,,0.00,WeatherDisplay:10.37,2013-04-05 04:00:00,
2013-04-05 00:01:00,43.0,24.6,30.00,SSW,202,3.5,3.5,48,0.00,CLR,,0.00,WeatherDisplay:10.37,2013-04-05 04:01:00,
2013-04-05 00:04:00,43.0,24.6,30.00,SSW,202,3.5,3.5,48,0.00,CLR,,0.00,WeatherDisplay:10.37,2013-04-05 04:04:00,
2013-04-05 00:09:00,43.0,24.6,29.98,South,180,3.5,3.5,48,0.00,CLR,,0.00,WeatherDisplay:10.37,2013-04-05 04:09:00,
2013-04-05 00:14:00,42.6,24.3,29.98,South,180,4.6,4.6,48,0.00,CLR,,0.00,WeatherDisplay:10.37,2013-04-05 04:14:00,
2013-04-05 00:19:00,42.6,24.3,29.98,South,180,4.6,4.6,48,0.00,OVC,,0.00,WeatherDisplay:10.37,2013-04-05 04:19:00,
2013-04-05 00:25:00,42.6,24.3,29.98,South,180,2.3,2.3,48,0.00,OVC,,0.00,WeatherDisplay:10.37,2013-04-05 04:25:00,
2013-04-05 00:30:00,42.4,24.1,29.98,South,180,2.3,2.3,48,0.00,OVC,,0.00,WeatherDisplay:10.37,2013-04-05 04:30:00,
2013-04-05 00:35:00,42.6,24.3,29.98,South,180,1.1,1.1,48,0.00,OVC,,0.00,WeatherDisplay:10.37,2013-04-05 04:35:00,
2013-04-05 00:40:00,42.4,24.1,29.98,South,180,3.5,3.5,48,0.00,OVC,,0.00,WeatherDisplay:10.37,2013-04-05 04:40:00,
2013-04-05 00:45:00,42.3,23.4,29.98,South,180,2.3,2.3,47,0.00,OVC,,0.00,WeatherDisplay:10.37,2013-04-05 04:45:00,
2013-04-05 00:50:00,42.1,22.8,29.98,SSE,158,5.1,5.1,46,0.00,OVC,,0.00,WeatherDisplay:10.37,2013-04-05 04:50:00,
2013-04-05 00:55:00,42.3,23.4,29.98,South,180,3.5,3.5,47,0.00,OVC,,0.00,WeatherDisplay:10.37,2013-04-05 04:55:00,
2013-04-05 01:00:00,41.9,23.1,29.98,SSW,202,3.5,3.5,47,0.00,OVC,,0.00,WeatherDisplay:10.37,2013-04-05 05:00:00,
2013-04-05 01:05:00,41.9,23.1,29.98,SSW,202,1.1,2.0,47,0.00,OVC,,0.00,WeatherDisplay:10.37,2013-04-05 05:05:00,
2013-04-05 01:10:00,41.7,22.9,29.98,SSW,202,1.1,2.0,47,0.00,OVC,,0.00,WeatherDisplay:10.37,2013-04-05 05:10:00,
2013-04-05 01:15:00,41.9,23.1,29.98,SSE,158,4.6,4.6,47,0.00,OVC,,0.00,WeatherDisplay:10.37,2013-04-05 05:15:00,
2013-04-05 01:20:00,41.7,22.9,29.98,South,180,5.8,5.8,47,0.00,OVC,,0.00,WeatherDisplay:10.37,2013-04-05 05:20:00,
2013-04-05 01:25:00,41.5,23.3,29.97,SW,225,9.2,9.2,48,0.00,OVC,,0.00,WeatherDisplay:10.37,2013-04-05 05:25:00,
2013-04-05 01:30:00,41.5,23.3,29.97,SSW,202,7.2,7.2,48,0.00,OVC,,0.00,WeatherDisplay:10.37,2013-04-05 05:30:00,
2013-04-05 01:35:00,41.5,23.8,29.97,SSW,202,6.4,6.4,49,0.00,OVC,,0.00,WeatherDisplay:10.37,2013-04-05 05:35:00,
2013-04-05 01:40:00,41.5,23.8,29.97,SSW,202,2.3,3.0,49,0.00,OVC,,0.00,WeatherDisplay:10.37,2013-04-05 05:40:00,
2013-04-05 01:45:00,41.4,24.1,29.96,South,180,4.6,4.6,50,0.00,OVC,,0.00,WeatherDisplay:10.37,2013-04-05 05:45:00,
2013-04-05 01:50:00,41.2,23.9,29.96,SW,225,6.9,6.9,50,0.00,OVC,,0.00,WeatherDisplay:10.37,2013-04-05 05:50:00,
2013-04-05 01:55:00,41.2,23.9,29.96,SSW,202,7.4,7.4,50,0.00,OVC,,0.00,WeatherDisplay:10.37,2013-04-05 05:55:00,
2013-04-05 02:00:00,41.2,24.4,29.96,SW,225,4.6,4.6,51,0.00,OVC,,0.00,WeatherDisplay:10.37,2013-04-05 06:00:00,
2013-04-05 02:06:00,41.2,24.4,29.93,South,180,3.6,3.6,51,0.00,OVC,,0.00,WeatherDisplay:10.37,2013-04-05 06:06:00,
2013-04-05 02:11:00,41.2,24.4,29.93,SE,135,4.6,4.6,51,0.00,OVC,,0.00,WeatherDisplay:10.37,2013-04-05 06:11:00,
2013-04-05 02:16:00,41.0,24.7,29.93,SSW,202,2.0,2.4,52,0.00,OVC,,0.00,WeatherDisplay:10.37,2013-04-05 06:16:00,
2013-04-05 02:21:00,41.0,25.2,29.93,SSE,158,2.3,2.3,53,0.00,OVC,,0.00,WeatherDisplay:10.37,2013-04-05 06:21:00,
2013-04-05 02:26:00,41.0,25.2,29.93,SSW,202,3.5,3.5,53,0.00,OVC,,0.00,WeatherDisplay:10.37,2013-04-05 06:26:00,
2013-04-05 02:31:00,41.0,25.6,29.93,South,180,5.8,5.8,54,0.00,OVC,,0.00,WeatherDisplay:10.37,2013-04-05 06:31:00,
2013-04-05 02:36:00,41.0,25.6,29.93,SSW,202,3.5,3.5,54,0.00,OVC,,0.00,WeatherDisplay:10.37,2013-04-05 06:36:00,
2013-04-05 02:41:00,41.0,25.6,29.93,ENE,68,3.9,3.9,54,0.00,OVC,,0.00,WeatherDisplay:10.37,2013-04-05 06:41:00,
2013-04-05 02:46:00,41.0,26.1,29.92,South,180,4.6,4.6,55,0.00,OVC,,0.00,WeatherDisplay:10.37,2013-04-05 06:46:00,
2013-04-05 02:51:00,41.0,26.1,29.92,SSE,158,3.5,3.5,55,0.00,OVC,,0.00,WeatherDisplay:10.37,2013-04-05 06:51:00,
2013-04-05 02:56:00,41.0,26.1,29.92,South,180,2.3,2.3,55,0.00,OVC,,0.00,WeatherDisplay:10.37,2013-04-05 06:56:00,
2013-04-05 03:01:00,41.0,26.1,29.92,SW,225,4.6,4.6,55,0.00,OVC,,0.00,WeatherDisplay:10.37,2013-04-05 07:01:00,
2013-04-05 03:06:00,41.0,26.5,29.92,South,180,2.3,2.3,56,0.00,OVC,,0.00,WeatherDisplay:10.37,2013-04-05 07:06:00,
2013-04-05 03:11:00,41.0,26.9,29.92,South,180,3.3,3.3,57,0.00,OVC,,0.00,WeatherDisplay:10.37,2013-04-05 07:11:00,
2013-04-05 03:16:00,41.0,26.5,29.92,SSE,158,2.3,2.3,56,0.00,OVC,,0.00,WeatherDisplay:10.37,2013-04-05 07:16:00,
2013-04-05 03:21:00,41.0,26.9,29.92,South,180,0.0,0.8,57,0.00,OVC,,0.00,WeatherDisplay:10.37,2013-04-05 07:21:00,
2013-04-05 03:26:00,41.0,26.9,29.91,South,180,2.3,2.3,57,0.00,OVC,,0.00,WeatherDisplay:10.37,2013-04-05 07:26:00,
2013-04-05 03:31:00,41.0,26.9,29.91,South,180,2.3,2.3,57,0.00,OVC,,0.00,WeatherDisplay:10.37,2013-04-05 07:31:00,
2013-04-05 03:36:00,41.0,26.9,29.91,SSE,158,2.0,2.0,57,0.00,OVC,,0.00,WeatherDisplay:10.37,2013-04-05 07:36:00,
2013-04-05 03:41:00,41.2,27.5,29.91,SSE,158,2.3,2.3,58,0.00,OVC,,0.00,WeatherDisplay:10.37,2013-04-05 07:41:00,
2013-04-05 03:46:00,41.2,27.5,29.90,South,180,2.3,2.3,58,0.00,OVC,,0.00,WeatherDisplay:10.37,2013-04-05 07:46:00,
2013-04-05 03:51:00,41.0,27.8,29.90,South,180,2.3,2.3,59,0.00,OVC,,0.00,WeatherDisplay:10.37,2013-04-05 07:51:00,
2013-04-05 03:56:00,41.0,27.3,29.90,SSW,202,4.6,4.6,58,0.00,OVC,,0.00,WeatherDisplay:10.37,2013-04-05 07:56:00,
2013-04-05 04:01:00,41.2,27.9,29.90,SE,135,3.5,3.5,59,0.00,OVC,,0.00,WeatherDisplay:10.37,2013-04-05 08:01:00,
2013-04-05 04:06:00,41.2,27.9,29.89,South,180,3.5,3.5,59,0.00,OVC,,0.00,WeatherDisplay:10.37,2013-04-05 08:06:00,
2013-04-05 04:11:00,41.0,28.2,29.89,South,180,3.5,3.5,60,0.00,OVC,,0.00,WeatherDisplay:10.37,2013-04-05 08:11:00,
2013-04-05 04:16:00,41.0,28.2,29.89,West,270,4.6,4.6,60,0.00,OVC,,0.00,WeatherDisplay:10.37,2013-04-05 08:16:00,
2013-04-05 04:21:00,41.0,28.2,29.89,SSW,202,1.1,1.1,60,0.00,OVC,,0.00,WeatherDisplay:10.37,2013-04-05 08:21:00,
2013-04-05 04:26:00,41.0,28.2,29.89,SW,225,1.1,1.1,60,0.00,OVC,,0.00,WeatherDisplay:10.37,2013-04-05 08:26:00,
2013-04-05 04:31:00,41.0,28.2,29.89,SSE,158,2.3,2.3,60,0.00,OVC,,0.00,WeatherDisplay:10.37,2013-04-05 08:31:00,
2013-04-05 04:37:00,41.0,27.8,29.89,SSW,202,0.0,0.7,59,0.00,OVC,,0.00,WeatherDisplay:10.37,2013-04-05 08:37:00,
2013-04-05 04:42:00,41.2,28.3,29.89,SSW,202,2.3,2.3,60,0.00,OVC,,0.00,WeatherDisplay:10.37,2013-04-05 08:42:00,
2013-04-05 04:47:00,41.2,28.3,29.88,SW,225,0.0,0.6,60,0.00,OVC,,0.00,WeatherDisplay:10.37,2013-04-05 08:47:00,
2013-04-05 04:52:00,41.2,28.3,29.88,SSE,158,0.0,0.3,60,0.00,OVC,,0.00,WeatherDisplay:10.37,2013-04-05 08:52:00,
2013-04-05 04:57:00,41.2,28.3,29.88,South,180,0.0,0.0,60,0.00,OVC,,0.00,WeatherDisplay:10.37,2013-04-05 08:57:00,
2013-04-05 05:02:00,41.2,28.3,29.88,SSW,202,1.1,1.1,60,0.00,OVC,,0.00,WeatherDisplay:10.37,2013-04-05 09:02:00,
2013-04-05 05:07:00,41.2,28.3,29.88,South,180,2.3,2.3,60,0.00,OVC,,0.00,WeatherDisplay:10.37,2013-04-05 09:07:00,
2013-04-05 05:12:00,41.2,28.3,29.88,South,180,2.3,2.3,60,0.00,OVC,,0.00,WeatherDisplay:10.37,2013-04-05 09:12:00,
2013-04-05 05:17:00,41.2,28.3,29.88,South,180,0.0,0.3,60,0.00,OVC,,0.00,WeatherDisplay:10.37,2013-04-05 09:17:00,
2013-04-05 05:22:00,41.2,28.7,29.88,West,270,0.0,0.2,61,0.00,OVC,,0.00,WeatherDisplay:10.37,2013-04-05 09:22:00,
2013-04-05 05:27:00,41.4,28.9,29.86,SW,225,2.3,2.3,61,0.00,OVC,,0.00,WeatherDisplay:10.37,2013-04-05 09:27:00,
2013-04-05 05:32:00,41.2,29.1,29.86,SW,225,1.1,1.1,62,0.00,OVC,,0.00,WeatherDisplay:10.37,2013-04-05 09:32:00,
2013-04-05 05:37:00,41.2,28.7,29.86,South,180,1.1,1.1,61,0.00,OVC,,0.00,WeatherDisplay:10.37,2013-04-05 09:37:00,
2013-04-05 05:42:00,41.2,28.7,29.86,SSW,202,2.3,2.3,61,0.00,OVC,,0.00,WeatherDisplay:10.37,2013-04-05 09:42:00,
2013-04-05 05:47:00,41.2,29.1,29.86,WSW,248,1.1,1.1,62,0.00,OVC,,0.00,WeatherDisplay:10.37,2013-04-05 09:47:00,
2013-04-05 05:52:00,41.2,28.7,29.86,SW,225,0.0,0.5,61,0.00,OVC,,0.00,WeatherDisplay:10.37,2013-04-05 09:52:00,
2013-04-05 05:57:00,41.2,28.7,29.86,SSE,158,0.0,0.3,61,0.00,OVC,,0.00,WeatherDisplay:10.37,2013-04-05 09:57:00,
2013-04-05 06:02:00,41.2,29.1,29.86,South,180,1.1,1.1,62,0.00,OVC,,0.00,WeatherDisplay:10.37,2013-04-05 10:02:00,
2013-04-05 06:07:00,41.2,28.7,29.85,South,180,0.0,0.3,61,0.00,OVC,,0.00,WeatherDisplay:10.37,2013-04-05 10:07:00,
2013-04-05 06:12:00,41.2,29.1,29.85,South,180,0.0,0.1,62,0.00,OVC,,0.00,WeatherDisplay:10.37,2013-04-05 10:12:00,
2013-04-05 06:17:00,41.2,29.1,29.85,West,270,0.0,0.3,62,0.00,OVC,,0.00,WeatherDisplay:10.37,2013-04-05 10:17:00,
2013-04-05 06:22:00,41.4,29.3,29.85,ESE,112,0.0,0.5,62,0.00,OVC,,0.00,WeatherDisplay:10.37,2013-04-05 10:22:00,
2013-04-05 06:27:00,41.4,29.3,29.85,SSW,202,1.1,1.1,62,0.00,OVC,,0.00,WeatherDisplay:10.37,2013-04-05 10:27:00,
2013-04-05 06:32:00,41.4,29.3,29.85,West,270,0.0,0.1,62,0.00,OVC,,0.00,WeatherDisplay:10.37,2013-04-05 10:32:00,
2013-04-05 06:37:00,41.4,29.7,29.85,SSW,202,0.0,0.1,63,0.00,OVC,,0.00,WeatherDisplay:10.37,2013-04-05 10:37:00,
2013-04-05 06:42:00,41.5,29.5,29.85,West,270,0.0,0.1,62,0.00,OVC,,0.00,WeatherDisplay:10.37,2013-04-05 10:42:00,
2013-04-05 06:47:00,41.5,29.5,29.83,South,180,0.0,0.1,62,0.00,OVC,,0.00,WeatherDisplay:10.37,2013-04-05 10:47:00,
2013-04-05 06:52:00,41.4,29.3,29.83,SW,225,0.0,0.0,62,0.00,OVC,,0.00,WeatherDisplay:10.37,2013-04-05 10:52:00,
2013-04-05 06:58:00,41.5,29.5,29.83,SW,225,1.1,0.0,62,0.00,OVC,,0.00,WeatherDisplay:10.37,2013-04-05 10:58:00,
2013-04-05 07:03:00,41.5,29.5,29.83,SW,225,1.1,1.1,62,0.00,OVC,,0.00,WeatherDisplay:10.37,2013-04-05 11:03:00,
2013-04-05 07:08:00,41.5,29.9,29.85,SW,225,1.1,1.1,63,0.00,OVC,,0.00,WeatherDisplay:10.37,2013-04-05 11:08:00,
2013-04-05 07:13:00,41.5,29.9,29.85,South,180,1.1,1.1,63,0.00,OVC,,0.00,WeatherDisplay:10.37,2013-04-05 11:13:00,
2013-04-05 07:18:00,41.5,29.9,29.85,WSW,248,0.0,0.1,63,0.00,OVC,,0.00,WeatherDisplay:10.37,2013-04-05 11:18:00,
2013-04-05 07:23:00,41.5,29.9,29.85,SSW,202,0.0,0.0,63,0.00,OVC,,0.00,WeatherDisplay:10.37,2013-04-05 11:23:00,
2013-04-05 07:28:00,41.5,29.9,29.84,SSW,202,0.0,0.0,63,0.00,OVC,,0.00,WeatherDisplay:10.37,2013-04-05 11:28:00,
2013-04-05 07:33:00,41.5,29.9,29.84,South,180,1.1,1.1,63,0.00,OVC,,0.00,WeatherDisplay:10.37,2013-04-05 11:33:00,
2013-04-05 07:38:00,41.7,30.0,29.84,WSW,248,0.0,0.1,63,0.00,OVC,,0.00,WeatherDisplay:10.37,2013-04-05 11:38:00,
2013-04-05 07:43:00,41.9,30.2,29.84,SSE,158,1.1,1.1,63,0.00,OVC,,0.00,WeatherDisplay:10.37,2013-04-05 11:43:00,
2013-04-05 07:48:00,41.9,30.2,29.82,South,180,0.0,0.1,63,0.00,OVC,,0.00,WeatherDisplay:10.37,2013-04-05 11:48:00,
2013-04-05 07:53:00,42.1,30.4,29.82,South,180,1.1,1.1,63,0.00,OVC,,0.00,WeatherDisplay:10.37,2013-04-05 11:53:00,
2013-04-05 07:58:00,42.1,30.4,29.82,South,180,2.3,2.3,63,0.00,OVC,,0.00,WeatherDisplay:10.37,2013-04-05 11:58:00,
2013-04-05 08:03:00,42.3,30.6,29.82,NW,315,0.0,0.2,63,0.00,OVC,,0.00,WeatherDisplay:10.37,2013-04-05 12:03:00,
2013-04-05 08:08:00,42.4,30.3,29.82,West,270,0.0,0.0,62,0.00,OVC,,0.00,WeatherDisplay:10.37,2013-04-05 12:08:00,
2013-04-05 08:13:00,42.4,30.3,29.82,West,270,0.0,0.0,62,0.00,OVC,,0.00,WeatherDisplay:10.37,2013-04-05 12:13:00,
2013-04-05 08:18:00,42.6,30.5,29.82,SSE,158,2.3,2.3,62,0.00,OVC,,0.00,WeatherDisplay:10.37,2013-04-05 12:18:00,
2013-04-05 08:23:00,43.0,30.8,29.82,South,180,1.5,1.5,62,0.00,OVC,,0.00,WeatherDisplay:10.37,2013-04-05 12:23:00,
2013-04-05 08:28:00,43.0,30.4,29.81,West,270,0.0,0.2,61,0.00,OVC,,0.00,WeatherDisplay:10.37,2013-04-05 12:28:00,
2013-04-05 08:33:00,43.2,30.6,29.81,South,180,0.0,0.2,61,0.00,OVC,,0.00,WeatherDisplay:10.37,2013-04-05 12:33:00,
2013-04-05 08:38:00,43.3,30.8,29.81,West,270,2.3,2.3,61,0.00,OVC,,0.00,WeatherDisplay:10.37,2013-04-05 12:38:00,
2013-04-05 08:43:00,43.7,31.1,29.81,NW,315,1.5,1.5,61,0.00,OVC,,0.00,WeatherDisplay:10.37,2013-04-05 12:43:00,
2013-04-05 08:48:00,43.7,31.1,29.82,West,270,0.0,0.3,61,0.00,OVC,,0.00,WeatherDisplay:10.37,2013-04-05 12:48:00,
2013-04-05 08:53:00,43.9,31.3,29.82,West,270,2.3,2.3,61,0.00,OVC,,0.00,WeatherDisplay:10.37,2013-04-05 12:53:00,
2013-04-05 08:58:00,43.9,31.3,29.82,WSW,248,2.3,2.3,61,0.00,OVC,,0.00,WeatherDisplay:10.37,2013-04-05 12:58:00,
2013-04-05 09:03:00,44.6,31.6,29.82,West,270,1.4,1.4,60,0.00,OVC,,0.00,WeatherDisplay:10.37,2013-04-05 13:03:00,
2013-04-05 09:08:00,45.0,31.9,29.80,NW,315,0.0,0.6,60,0.00,OVC,,0.00,WeatherDisplay:10.37,2013-04-05 13:08:00,
2013-04-05 09:13:00,45.3,31.4,29.80,NW,315,2.3,2.3,58,0.00,OVC,,0.00,WeatherDisplay:10.37,2013-04-05 13:13:00,
2013-04-05 09:18:00,45.9,31.5,29.80,NW,315,0.0,0.7,57,0.00,OVC,,0.00,WeatherDisplay:10.37,2013-04-05 13:18:00,
2013-04-05 09:24:00,46.0,31.2,29.80,South,180,2.3,2.3,56,0.00,OVC,,0.00,WeatherDisplay:10.37,2013-04-05 13:24:00,
2013-04-05 09:29:00,46.4,31.5,29.78,ESE,112,0.0,0.3,56,0.00,OVC,,0.00,WeatherDisplay:10.37,2013-04-05 13:29:00,
2013-04-05 09:34:00,46.8,31.4,29.78,NW,315,1.1,1.1,55,0.00,OVC,,0.00,WeatherDisplay:10.37,2013-04-05 13:34:00,
2013-04-05 09:39:00,47.1,31.8,29.78,West,270,2.3,2.3,55,0.00,OVC,,0.00,WeatherDisplay:10.37,2013-04-05 13:39:00,
2013-04-05 09:44:00,47.5,31.6,29.78,SSW,202,1.3,1.3,54,0.00,OVC,,0.00,WeatherDisplay:10.37,2013-04-05 13:44:00,
2013-04-05 09:49:00,47.8,31.5,29.78,ESE,112,0.0,0.8,53,0.00,OVC,,0.00,WeatherDisplay:10.37,2013-04-05 13:49:00,
2013-04-05 09:54:00,48.4,31.1,29.78,WSW,248,2.3,2.3,51,0.00,OVC,,0.00,WeatherDisplay:10.37,2013-04-05 13:54:00,
2013-04-05 09:59:00,48.4,31.5,29.78,NNE,22,0.0,0.3,52,0.00,OVC,,0.00,WeatherDisplay:10.37,2013-04-05 13:59:00,
2013-04-05 10:04:00,49.1,31.2,29.78,NW,315,3.5,3.5,50,0.00,OVC,,0.00,WeatherDisplay:10.37,2013-04-05 14:04:00,
2013-04-05 10:09:00,49.1,30.7,29.77,ENE,68,2.3,2.3,49,0.00,OVC,,0.00,WeatherDisplay:10.37,2013-04-05 14:09:00,
2013-04-05 10:14:00,49.5,30.6,29.77,NW,315,3.5,3.5,48,0.00,OVC,,0.00,WeatherDisplay:10.37,2013-04-05 14:14:00,
2013-04-05 10:19:00,49.6,30.7,29.77,NW,315,3.5,3.5,48,0.00,OVC,,0.00,WeatherDisplay:10.37,2013-04-05 14:19:00,
2013-04-05 10:24:00,50.2,30.7,29.77,WSW,248,2.3,2.3,47,0.00,OVC,,0.00,WeatherDisplay:10.37,2013-04-05 14:24:00,
2013-04-05 10:29:00,50.4,30.3,29.75,West,270,2.3,2.3,46,0.00,OVC,,0.00,WeatherDisplay:10.37,2013-04-05 14:29:00,
2013-04-05 10:35:00,50.4,29.2,29.75,ENE,68,5.8,5.8,44,0.00,OVC,,0.00,WeatherDisplay:10.37,2013-04-05 14:35:00,
2013-04-05 10:40:00,51.1,29.3,29.75,WNW,292,5.8,5.8,43,0.00,OVC,,0.00,WeatherDisplay:10.37,2013-04-05 14:40:00,
2013-04-05 10:45:00,51.6,29.8,29.75,SSW,202,7.2,7.2,43,0.00,OVC,,0.00,WeatherDisplay:10.37,2013-04-05 14:45:00,
2013-04-05 10:50:00,52.2,29.7,29.76,West,270,5.8,5.8,42,0.00,OVC,,0.00,WeatherDisplay:10.37,2013-04-05 14:50:00,
2013-04-05 10:55:00,52.7,29.6,29.76,NNW,338,4.6,4.6,41,0.00,OVC,,0.00,WeatherDisplay:10.37,2013-04-05 14:55:00,
2013-04-05 11:00:00,53.2,30.1,29.76,NW,315,3.5,3.5,41,0.00,OVC,,0.00,WeatherDisplay:10.37,2013-04-05 15:00:00,
2013-04-05 11:05:00,53.8,30.0,29.76,NW,315,5.8,5.8,40,0.00,OVC,,0.00,WeatherDisplay:10.37,2013-04-05 15:05:00,
2013-04-05 11:10:00,54.0,30.2,29.75,NNE,22,3.5,3.5,40,0.00,OVC,,0.00,WeatherDisplay:10.37,2013-04-05 15:10:00,
2013-04-05 11:16:00,54.5,30.0,29.75,North,0,6.1,6.1,39,0.00,OVC,,0.00,WeatherDisplay:10.37,2013-04-05 15:16:00,
2013-04-05 11:22:00,55.0,30.5,29.75,NW,315,8.1,8.1,39,0.00,OVC,,0.00,WeatherDisplay:10.37,2013-04-05 15:22:00,
2013-04-05 11:27:00,55.6,30.4,29.73,NNE,22,4.6,4.6,38,0.00,OVC,,0.00,WeatherDisplay:10.37,2013-04-05 15:27:00,
2013-04-05 11:32:00,55.9,29.3,29.73,NE,45,3.5,3.8,36,0.00,OVC,,0.00,WeatherDisplay:10.37,2013-04-05 15:32:00,
2013-04-05 11:37:00,56.1,29.5,29.73,NNE,22,4.6,4.6,36,0.00,OVC,,0.00,WeatherDisplay:10.37,2013-04-05 15:37:00,
2013-04-05 11:42:00,56.3,28.3,29.73,NE,45,4.6,4.6,34,0.00,OVC,,0.00,WeatherDisplay:10.37,2013-04-05 15:42:00,
2013-04-05 11:47:00,56.7,30.0,29.72,NW,315,3.9,3.9,36,0.00,OVC,,0.00,WeatherDisplay:10.37,2013-04-05 15:47:00,
2013-04-05 11:52:00,56.8,30.1,29.72,NNW,338,4.6,4.6,36,0.00,OVC,,0.00,WeatherDisplay:10.37,2013-04-05 15:52:00,
2013-04-05 11:57:00,57.6,29.4,29.72,North,0,4.6,4.6,34,0.00,OVC,,0.00,WeatherDisplay:10.37,2013-04-05 15:57:00,
2013-04-05 12:02:00,57.9,29.0,29.72,NW,315,9.2,9.2,33,0.00,OVC,,0.00,WeatherDisplay:10.37,2013-04-05 16:02:00,
2013-04-05 12:07:00,58.1,26.8,29.71,NNE,22,6.9,6.9,30,0.00,OVC,,0.00,WeatherDisplay:10.37,2013-04-05 16:07:00,
2013-04-05 12:12:00,58.5,26.3,29.71,WNW,292,6.9,6.9,29,0.00,OVC,,0.00,WeatherDisplay:10.37,2013-04-05 16:12:00,
2013-04-05 12:17:00,58.5,23.7,29.71,WNW,292,8.1,8.1,26,0.00,OVC,,0.00,WeatherDisplay:10.37,2013-04-05 16:17:00,
2013-04-05 12:22:00,58.6,23.8,29.71,NW,315,4.6,4.6,26,0.00,OVC,,0.00,WeatherDisplay:10.37,2013-04-05 16:22:00,
2013-04-05 12:27:00,58.8,24.0,29.69,NNW,338,8.1,8.1,26,0.00,OVC,,0.00,WeatherDisplay:10.37,2013-04-05 16:27:00,
2013-04-05 12:32:00,59.0,24.1,29.69,NW,315,6.9,6.9,26,0.00,OVC,,0.00,WeatherDisplay:10.37,2013-04-05 16:32:00,
2013-04-05 12:38:00,59.0,24.1,29.69,NW,315,8.1,8.1,26,0.00,OVC,,0.00,WeatherDisplay:10.37,2013-04-05 16:38:00,
2013-04-05 12:43:00,59.2,23.3,29.69,NW,315,5.8,5.8,25,0.00,OVC,,0.00,WeatherDisplay:10.37,2013-04-05 16:43:00,
2013-04-05 12:48:00,59.4,23.5,29.68,NW,315,10.4,10.4,25,0.00,OVC,,0.00,WeatherDisplay:10.37,2013-04-05 16:48:00,
2013-04-05 12:53:00,59.9,23.0,29.68,NNW,338,11.5,11.5,24,0.00,OVC,,0.00,WeatherDisplay:10.37,2013-04-05 16:53:00,
2013-04-05 12:58:00,59.5,22.7,29.68,NNW,338,8.1,8.1,24,0.00,OVC,,0.00,WeatherDisplay:10.37,2013-04-05 16:58:00,
2013-04-05 13:03:00,59.7,22.8,29.68,NNW,338,8.1,8.1,24,0.00,OVC,,0.00,WeatherDisplay:10.37,2013-04-05 17:03:00,
2013-04-05 13:08:00,59.7,21.8,29.66,NNW,338,8.1,8.1,23,0.00,OVC,,0.00,WeatherDisplay:10.37,2013-04-05 17:08:00,
2013-04-05 13:13:00,59.9,19.8,29.66,NW,315,9.2,9.2,21,0.00,OVC,,0.00,WeatherDisplay:10.37,2013-04-05 17:13:00,
2013-04-05 13:18:00,59.9,22.0,29.66,ESE,112,6.9,6.9,23,0.00,OVC,,0.00,WeatherDisplay:10.37,2013-04-05 17:18:00,
2013-04-05 13:23:00,60.4,22.4,29.66,WNW,292,5.8,5.8,23,0.00,OVC,,0.00,WeatherDisplay:10.37,2013-04-05 17:23:00,
2013-04-05 13:28:00,60.8,22.7,29.64,NNW,338,7.2,7.2,23,0.00,OVC,,0.00,WeatherDisplay:10.37,2013-04-05 17:28:00,
2013-04-05 13:34:00,61.0,20.7,29.64,NNW,338,5.8,5.8,21,0.00,OVC,,0.00,WeatherDisplay:10.37,2013-04-05 17:34:00,
2013-04-05 13:39:00,61.2,20.9,29.64,NW,315,10.4,10.4,21,0.00,OVC,,0.00,WeatherDisplay:10.37,2013-04-05 17:39:00,
2013-04-05 13:44:00,61.2,20.9,29.64,NNW,338,6.9,6.9,21,0.00,OVC,,0.00,WeatherDisplay:10.37,2013-04-05 17:44:00,
2013-04-05 13:49:00,61.3,21.0,29.64,NW,315,3.5,4.0,21,0.00,OVC,,0.00,WeatherDisplay:10.37,2013-04-05 17:49:00,
2013-04-05 13:54:00,61.9,21.5,29.64,West,270,4.6,4.6,21,0.00,OVC,,0.00,WeatherDisplay:10.37,2013-04-05 17:54:00,
2013-04-05 13:59:00,61.9,21.5,29.64,North,0,3.5,3.5,21,0.00,OVC,,0.00,WeatherDisplay:10.37,2013-04-05 17:59:00,
2013-04-05 14:04:00,62.1,20.5,29.64,WNW,292,9.2,9.2,20,0.00,OVC,,0.00,WeatherDisplay:10.37,2013-04-05 18:04:00,
2013-04-05 14:09:00,62.1,20.5,29.64,NW,315,5.8,5.8,20,0.00,OVC,,0.00,WeatherDisplay:10.37,2013-04-05 18:09:00,
2013-04-05 14:14:00,62.1,21.6,29.64,West,270,8.1,8.1,21,0.00,OVC,,0.00,WeatherDisplay:10.37,2013-04-05 18:14:00,
2013-04-05 14:19:00,62.2,21.8,29.64,NW,315,9.2,9.2,21,0.00,OVC,,0.00,WeatherDisplay:10.37,2013-04-05 18:19:00,
2013-04-05 14:25:00,62.8,22.2,29.64,NW,315,6.9,6.9,21,0.00,OVC,,0.00,WeatherDisplay:10.37,2013-04-05 18:25:00,
2013-04-05 14:30:00,62.8,22.2,29.62,NW,315,5.8,5.8,21,0.00,OVC,,0.00,WeatherDisplay:10.37,2013-04-05 18:30:00,
2013-04-05 14:35:00,62.8,21.1,29.62,NW,315,6.9,6.9,20,0.00,OVC,,0.00,WeatherDisplay:10.37,2013-04-05 18:35:00,
2013-04-05 14:40:00,62.8,22.2,29.62,West,270,5.8,5.8,21,0.00,OVC,,0.00,WeatherDisplay:10.37,2013-04-05 18:40:00,
2013-04-05 14:45:00,63.1,21.4,29.62,NNE,22,4.6,4.6,20,0.00,OVC,,0.00,WeatherDisplay:10.37,2013-04-05 18:45:00,
2013-04-05 14:50:00,63.3,23.8,29.62,West,270,11.5,11.5,22,0.00,OVC,,0.00,WeatherDisplay:10.37,2013-04-05 18:50:00,
2013-04-05 14:55:00,63.5,23.9,29.62,NW,315,4.6,4.6,22,0.00,OVC,,0.00,WeatherDisplay:10.37,2013-04-05 18:55:00,
2013-04-05 15:00:00,63.9,24.2,29.62,NW,315,11.5,11.5,22,0.00,OVC,,0.00,WeatherDisplay:10.37,2013-04-05 19:00:00,
2013-04-05 15:05:00,63.9,25.3,29.62,NNE,22,4.6,4.9,23,0.00,OVC,,0.00,WeatherDisplay:10.37,2013-04-05 19:05:00,
2013-04-05 15:10:00,64.2,24.5,29.61,NW,315,5.8,5.8,22,0.00,OVC,,0.00,WeatherDisplay:10.37,2013-04-05 19:10:00,
2013-04-05 15:15:00,64.2,25.6,29.61,NNE,22,11.5,11.5,23,0.00,OVC,,0.00,WeatherDisplay:10.37,2013-04-05 19:15:00,
2013-04-05 15:20:00,64.0,24.4,29.61,WSW,248,11.5,11.5,22,0.00,OVC,,0.00,WeatherDisplay:10.37,2013-04-05 19:20:00,
2013-04-05 15:25:00,64.2,25.6,29.61,NW,315,9.2,9.2,23,0.00,OVC,,0.00,WeatherDisplay:10.37,2013-04-05 19:25:00,
2013-04-05 15:30:00,64.4,25.8,29.60,NNW,338,9.2,9.2,23,0.00,OVC,,0.00,WeatherDisplay:10.37,2013-04-05 19:30:00,
2013-04-05 15:35:00,64.6,26.9,29.60,NW,315,6.9,6.9,24,0.00,OVC,,0.00,WeatherDisplay:10.37,2013-04-05 19:35:00,
2013-04-05 15:40:00,64.6,25.9,29.60,NW,315,16.1,16.1,23,0.00,OVC,,0.00,WeatherDisplay:10.37,2013-04-05 19:40:00,
2013-04-05 15:46:00,64.4,25.8,29.60,West,270,10.4,10.4,23,0.00,OVC,,0.00,WeatherDisplay:10.37,2013-04-05 19:46:00,
2013-04-05 15:51:00,64.6,26.9,29.60,WNW,292,8.1,8.1,24,0.00,OVC,,0.00,WeatherDisplay:10.37,2013-04-05 19:51:00,
2013-04-05 15:56:00,64.6,25.9,29.60,WNW,292,9.2,9.2,23,0.00,OVC,,0.00,WeatherDisplay:10.37,2013-04-05 19:56:00,
2013-04-05 16:01:00,64.2,26.6,29.60,NW,315,6.9,6.9,24,0.00,OVC,,0.00,WeatherDisplay:10.37,2013-04-05 20:01:00,
2013-04-05 16:06:00,64.0,26.5,29.60,NW,315,13.1,13.1,24,0.00,OVC,,0.00,WeatherDisplay:10.37,2013-04-05 20:06:00,
2013-04-05 16:11:00,64.0,25.5,29.60,NW,315,7.1,7.1,23,0.00,OVC,,0.00,WeatherDisplay:10.37,2013-04-05 20:11:00,
2013-04-05 16:17:00,64.0,25.5,29.60,NW,315,10.4,10.4,23,0.00,OVC,,0.00,WeatherDisplay:10.37,2013-04-05 20:17:00,
2013-04-05 16:22:00,64.0,25.5,29.60,NNW,338,4.6,6.2,23,0.00,OVC,,0.00,WeatherDisplay:10.37,2013-04-05 20:22:00,
2013-04-05 16:27:00,63.9,25.3,29.61,North,0,11.5,11.5,23,0.00,OVC,,0.00,WeatherDisplay:10.37,2013-04-05 20:27:00,
2013-04-05 16:32:00,63.5,25.0,29.61,NW,315,12.7,12.7,23,0.00,OVC,,0.00,WeatherDisplay:10.37,2013-04-05 20:32:00,
2013-04-05 16:38:00,63.3,24.8,29.61,NW,315,10.4,10.4,23,0.00,OVC,,0.00,WeatherDisplay:10.37,2013-04-05 20:38:00,
2013-04-05 16:43:00,63.1,23.6,29.61,NW,315,15.0,15.0,22,0.00,OVC,,0.00,WeatherDisplay:10.37,2013-04-05 20:43:00,
2013-04-05 16:48:00,62.6,23.2,29.61,NW,315,9.2,9.2,22,0.00,OVC,,0.00,WeatherDisplay:10.37,2013-04-05 20:48:00,
2013-04-05 16:53:00,62.8,23.3,29.61,NW,315,9.2,9.2,22,0.00,OVC,,0.00,WeatherDisplay:10.37,2013-04-05 20:53:00,
2013-04-05 16:58:00,62.4,24.1,29.61,West,270,19.6,19.6,23,0.00,OVC,,0.00,WeatherDisplay:10.37,2013-04-05 20:58:00,
2013-04-05 17:03:00,61.9,23.6,29.61,West,270,11.8,11.8,23,0.00,OVC,,0.00,WeatherDisplay:10.37,2013-04-05 21:03:00,
2013-04-05 17:08:00,61.9,23.6,29.63,NW,315,9.2,9.2,23,0.00,OVC,,0.00,WeatherDisplay:10.37,2013-04-05 21:08:00,
2013-04-05 17:13:00,61.7,23.5,29.63,WNW,292,8.1,8.1,23,0.00,OVC,,0.00,WeatherDisplay:10.37,2013-04-05 21:13:00,
2013-04-05 17:18:00,61.7,24.5,29.63,North,0,9.3,9.3,24,0.00,OVC,,0.00,WeatherDisplay:10.37,2013-04-05 21:18:00,
2013-04-05 17:23:00,61.2,24.0,29.63,WNW,292,9.2,9.2,24,0.00,OVC,,0.00,WeatherDisplay:10.37,2013-04-05 21:23:00,
2013-04-05 17:28:00,61.0,23.9,29.64,NW,315,13.8,13.8,24,0.00,OVC,,0.00,WeatherDisplay:10.37,2013-04-05 21:28:00,
2013-04-05 17:33:00,60.8,22.7,29.64,NNW,338,11.5,11.5,23,0.00,OVC,,0.00,WeatherDisplay:10.37,2013-04-05 21:33:00,
2013-04-05 17:39:00,60.6,20.4,29.64,NW,315,13.9,13.9,21,0.00,OVC,,0.00,WeatherDisplay:10.37,2013-04-05 21:39:00,
2013-04-05 17:44:00,60.4,20.3,29.64,North,0,10.4,10.4,21,0.00,OVC,,0.00,WeatherDisplay:10.37,2013-04-05 21:44:00,
2013-04-05 17:49:00,60.3,22.3,29.66,WSW,248,9.2,9.2,23,0.00,OVC,,0.00,WeatherDisplay:10.37,2013-04-05 21:49:00,
2013-04-05 17:54:00,60.3,20.1,29.66,NW,315,10.4,10.4,21,0.00,OVC,,0.00,WeatherDisplay:10.37,2013-04-05 21:54:00,
2013-04-05 17:59:00,60.1,21.1,29.66,SSE,158,9.2,9.2,22,0.00,OVC,,0.00,WeatherDisplay:10.37,2013-04-05 21:59:00,
2013-04-05 18:04:00,59.9,19.8,29.66,WNW,292,9.7,9.7,21,0.00,OVC,,0.00,WeatherDisplay:10.37,2013-04-05 22:04:00,
2013-04-05 18:09:00,59.9,20.9,29.68,North,0,5.5,5.5,22,0.00,OVC,,0.00,WeatherDisplay:10.37,2013-04-05 22:09:00,
2013-04-05 18:15:00,59.7,19.7,29.68,NW,315,9.2,9.2,21,0.00,OVC,,0.00,WeatherDisplay:10.37,2013-04-05 22:15:00,
2013-04-05 18:20:00,59.5,19.5,29.68,NNE,22,5.8,6.1,21,0.00,OVC,,0.00,WeatherDisplay:10.37,2013-04-05 22:20:00,
2013-04-05 18:25:00,59.4,19.4,29.68,NNE,22,12.7,12.7,21,0.00,OVC,,0.00,WeatherDisplay:10.37,2013-04-05 22:25:00,
2013-04-05 18:30:00,59.2,21.4,29.69,NNW,338,4.6,4.9,23,0.00,OVC,,0.00,WeatherDisplay:10.37,2013-04-05 22:30:00,
2013-04-05 18:35:00,58.8,21.1,29.69,NW,315,5.8,5.8,23,0.00,OVC,,0.00,WeatherDisplay:10.37,2013-04-05 22:35:00,
2013-04-05 18:40:00,58.8,21.1,29.69,NW,315,11.5,11.5,23,0.00,OVC,,0.00,WeatherDisplay:10.37,2013-04-05 22:40:00,
2013-04-05 18:45:00,58.5,20.7,29.70,NW,315,12.7,12.7,23,0.00,OVC,,0.00,WeatherDisplay:10.37,2013-04-05 22:45:00,
2013-04-05 18:50:00,58.3,21.6,29.70,NNW,338,11.5,11.5,24,0.00,OVC,,0.00,WeatherDisplay:10.37,2013-04-05 22:50:00,
2013-04-05 18:56:00,57.7,21.1,29.70,WNW,292,8.1,8.1,24,0.00,OVC,,0.00,WeatherDisplay:10.37,2013-04-05 22:56:00,
2013-04-05 19:01:00,57.4,21.8,29.70,NW,315,6.1,6.1,25,0.00,OVC,,0.00,WeatherDisplay:10.37,2013-04-05 23:01:00,
2013-04-05 19:06:00,57.4,21.8,29.71,NNE,22,4.6,4.6,25,0.00,OVC,,0.00,WeatherDisplay:10.37,2013-04-05 23:06:00,
2013-04-05 19:12:00,57.0,20.5,29.71,NW,315,8.1,8.1,24,0.00,OVC,,0.00,WeatherDisplay:10.37,2013-04-05 23:12:00,
2013-04-05 19:17:00,56.1,19.8,29.71,NNE,22,5.8,5.8,24,0.00,OVC,,0.00,WeatherDisplay:10.37,2013-04-05 23:17:00,
2013-04-05 19:22:00,55.9,20.6,29.71,NNW,338,4.6,4.6,25,0.00,OVC,,0.00,WeatherDisplay:10.37,2013-04-05 23:22:00,
2013-04-05 19:27:00,55.6,20.3,29.72,NNW,338,2.3,3.7,25,0.00,OVC,,0.00,WeatherDisplay:10.37,2013-04-05 23:27:00,
2013-04-05 19:32:00,55.2,20.9,29.72,West,270,3.5,3.5,26,0.00,OVC,,0.00,WeatherDisplay:10.37,2013-04-05 23:32:00,
2013-04-05 19:38:00,54.7,20.4,29.72,WSW,248,3.5,3.5,26,0.00,OVC,,0.00,WeatherDisplay:10.37,2013-04-05 23:38:00,
2013-04-05 19:43:00,54.5,21.2,29.72,NW,315,5.8,5.8,27,0.00,OVC,,0.00,WeatherDisplay:10.37,2013-04-05 23:43:00,
2013-04-05 19:48:00,54.5,21.2,29.73,NNE,22,6.9,6.9,27,0.00,OVC,,0.00,WeatherDisplay:10.37,2013-04-05 23:48:00,
2013-04-05 19:53:00,54.0,21.6,29.73,NW,315,3.5,3.9,28,0.00,OVC,,0.00,WeatherDisplay:10.37,2013-04-05 23:53:00,
2013-04-05 19:58:00,53.8,21.4,29.73,NW,315,5.8,5.8,28,0.00,OVC,,0.00,WeatherDisplay:10.37,2013-04-05 23:58:00,
2013-04-05 20:03:00,53.8,21.4,29.73,North,0,6.4,6.4,28,0.00,OVC,,0.00,WeatherDisplay:10.37,2013-04-06 00:03:00,
2013-04-05 20:08:00,53.2,20.9,29.75,NW,315,10.4,10.4,28,0.00,OVC,,0.00,WeatherDisplay:10.37,2013-04-06 00:08:00,
2013-04-05 20:13:00,53.2,20.9,29.75,NW,315,6.9,6.9,28,0.00,OVC,,0.00,WeatherDisplay:10.37,2013-04-06 00:13:00,
2013-04-05 20:18:00,53.1,20.8,29.75,NW,315,4.6,4.6,28,0.00,OVC,,0.00,WeatherDisplay:10.37,2013-04-06 00:18:00,
2013-04-05 20:23:00,52.5,20.3,29.75,SE,135,6.9,6.9,28,0.00,OVC,,0.00,WeatherDisplay:10.37,2013-04-06 00:23:00,
2013-04-05 20:28:00,52.3,21.0,29.76,NW,315,12.7,12.7,29,0.00,OVC,,0.00,WeatherDisplay:10.37,2013-04-06 00:28:00,
2013-04-05 20:33:00,52.3,21.0,29.76,NNW,338,11.5,11.5,29,0.00,OVC,,0.00,WeatherDisplay:10.37,2013-04-06 00:33:00,
2013-04-05 20:38:00,52.0,20.7,29.76,NW,315,4.6,6.1,29,0.00,OVC,,0.00,WeatherDisplay:10.37,2013-04-06 00:38:00,
2013-04-05 20:43:00,51.8,20.5,29.76,NW,315,5.8,5.9,29,0.00,OVC,,0.00,WeatherDisplay:10.37,2013-04-06 00:43:00,
2013-04-05 20:48:00,51.6,20.4,29.78,NNW,338,6.9,6.9,29,0.00,OVC,,0.00,WeatherDisplay:10.37,2013-04-06 00:48:00,
2013-04-05 20:53:00,51.6,20.4,29.78,NNW,338,4.6,5.5,29,0.00,OVC,,0.00,WeatherDisplay:10.37,2013-04-06 00:53:00,
2013-04-05 20:58:00,51.3,20.8,29.78,NNE,22,11.5,11.5,30,0.00,OVC,,0.00,WeatherDisplay:10.37,2013-04-06 00:58:00,
2013-04-05 21:03:00,51.1,20.7,29.78,NNW,338,11.5,11.5,30,0.00,OVC,,0.00,WeatherDisplay:10.37,2013-04-06 01:03:00,
2013-04-05 21:08:00,50.9,21.3,29.81,NW,315,20.7,20.7,31,0.00,OVC,,0.00,WeatherDisplay:10.37,2013-04-06 01:08:00,
2013-04-05 21:13:00,50.5,21.0,29.81,NNW,338,6.9,6.9,31,0.00,OVC,,0.00,WeatherDisplay:10.37,2013-04-06 01:13:00,
2013-04-05 21:18:00,50.4,20.8,29.81,NW,315,8.1,8.1,31,0.00,OVC,,0.00,WeatherDisplay:10.37,2013-04-06 01:18:00,
2013-04-05 21:23:00,50.0,21.3,29.81,NW,315,13.8,13.8,32,0.00,OVC,,0.00,WeatherDisplay:10.37,2013-04-06 01:23:00,
2013-04-05 21:28:00,49.8,21.1,29.83,NNW,338,9.2,9.2,32,0.00,OVC,,0.00,WeatherDisplay:10.37,2013-04-06 01:28:00,
2013-04-05 21:33:00,49.6,21.7,29.83,North,0,9.2,9.2,33,0.00,OVC,,0.00,WeatherDisplay:10.37,2013-04-06 01:33:00,
2013-04-05 21:38:00,49.5,21.5,29.83,ENE,68,8.1,8.1,33,0.00,OVC,,0.00,WeatherDisplay:10.37,2013-04-06 01:38:00,
2013-04-05 21:43:00,48.9,21.7,29.83,NW,315,12.7,12.7,34,0.00,OVC,,0.00,WeatherDisplay:10.37,2013-04-06 01:43:00,
2013-04-05 21:49:00,48.6,21.4,29.85,NW,315,17.3,17.3,34,0.00,OVC,,0.00,WeatherDisplay:10.37,2013-04-06 01:49:00,
2013-04-05 21:54:00,48.4,22.0,29.85,North,0,9.2,9.2,35,0.00,OVC,,0.00,WeatherDisplay:10.37,2013-04-06 01:54:00,
2013-04-05 21:59:00,48.0,22.3,29.85,NNW,338,8.1,8.1,36,0.00,OVC,,0.00,WeatherDisplay:10.37,2013-04-06 01:59:00,
2013-04-05 22:04:00,48.0,22.3,29.85,NNW,338,8.1,8.1,36,0.00,OVC,,0.00,WeatherDisplay:10.37,2013-04-06 02:04:00,
2013-04-05 22:10:00,47.5,22.5,29.86,NW,315,11.5,11.5,37,0.00,OVC,,0.00,WeatherDisplay:10.37,2013-04-06 02:10:00,
2013-04-05 22:15:00,47.3,22.3,29.86,NNW,338,8.1,8.1,37,0.00,OVC,,0.00,WeatherDisplay:10.37,2013-04-06 02:15:00,
2013-04-05 22:20:00,47.3,22.3,29.86,North,0,10.4,10.4,37,0.00,OVC,,0.00,WeatherDisplay:10.37,2013-04-06 02:20:00,
2013-04-05 22:25:00,46.8,21.8,29.86,NW,315,11.5,11.5,37,0.00,OVC,,0.00,WeatherDisplay:10.37,2013-04-06 02:25:00,
2013-04-05 22:30:00,46.6,21.7,29.86,NNW,338,9.2,9.2,37,0.00,OVC,,0.00,WeatherDisplay:10.37,2013-04-06 02:30:00,
2013-04-05 22:36:00,46.0,21.8,29.86,NNW,338,4.6,6.8,38,0.00,OVC,,0.00,WeatherDisplay:10.37,2013-04-06 02:36:00,
2013-04-05 22:41:00,45.9,21.7,29.86,NNW,338,9.2,9.2,38,0.00,OVC,,0.00,WeatherDisplay:10.37,2013-04-06 02:41:00,
2013-04-05 22:47:00,45.5,21.3,29.88,North,0,3.5,5.4,38,0.00,OVC,,0.00,WeatherDisplay:10.37,2013-04-06 02:47:00,
2013-04-05 22:52:00,45.3,21.2,29.88,NNW,338,9.2,9.2,38,0.00,OVC,,0.00,WeatherDisplay:10.37,2013-04-06 02:52:00,
2013-04-05 22:57:00,45.1,20.4,29.88,NW,315,6.9,6.9,37,0.00,OVC,,0.00,WeatherDisplay:10.37,2013-04-06 02:57:00,
2013-04-05 23:02:00,44.8,20.1,29.88,NW,315,5.8,6.1,37,0.00,OVC,,0.00,WeatherDisplay:10.37,2013-04-06 03:02:00,
2013-04-05 23:07:00,44.6,20.5,29.88,NNE,22,4.6,4.6,38,0.00,OVC,,0.00,WeatherDisplay:10.37,2013-04-06 03:07:00,
2013-04-05 23:12:00,44.4,20.4,29.88,NNW,338,8.1,8.1,38,0.00,OVC,,0.00,WeatherDisplay:10.37,2013-04-06 03:12:00,
2013-04-05 23:18:00,44.1,20.0,29.88,West,270,6.9,6.9,38,0.00,OVC,,0.00,WeatherDisplay:10.37,2013-04-06 03:18:00,
2013-04-05 23:23:00,43.9,19.9,29.88,NW,315,9.7,9.7,38,0.00,OVC,,0.00,WeatherDisplay:10.37,2013-04-06 03:23:00,
2013-04-05 23:28:00,43.7,19.7,29.89,NNW,338,4.6,4.7,38,0.00,OVC,,0.00,WeatherDisplay:10.37,2013-04-06 03:28:00,
2013-04-05 23:33:00,43.7,19.7,29.89,NW,315,12.7,12.7,38,0.00,OVC,,0.00,WeatherDisplay:10.37,2013-04-06 03:33:00,
2013-04-05 23:38:00,43.3,19.4,29.89,NW,315,7.0,7.0,38,0.00,OVC,,0.00,WeatherDisplay:10.37,2013-04-06 03:38:00,
2013-04-05 23:43:00,43.3,19.4,29.89,NW,315,4.6,4.7,38,0.00,OVC,,0.00,WeatherDisplay:10.37,2013-04-06 03:43:00,
2013-04-05 23:48:00,43.0,19.1,29.90,NW,315,5.8,5.8,38,0.00,OVC,,0.00,WeatherDisplay:10.37,2013-04-06 03:48:00,
2013-04-05 23:53:00,43.0,19.7,29.90,NNW,338,5.8,5.8,39,0.00,OVC,,0.00,WeatherDisplay:10.37,2013-04-06 03:53:00,
2013-04-05 23:58:00,42.6,19.4,29.90,NNW,338,8.1,8.1,39,0.00,OVC,,0.00,WeatherDisplay:10.37,2013-04-06 03:58:00,